createdAt,value
2022-11-19T00:01:20.703Z,10.77
2022-11-19T00:03:52.366Z,14.70
2022-11-19T00:06:26.152Z,10.90
2022-11-19T00:08:53.990Z,12.73
2022-11-19T00:11:46.621Z,7.53
2022-11-19T00:14:15.390Z,12.20
2022-11-19T00:16:44.032Z,8.13
2022-11-19T00:19:11.882Z,7.38
2022-11-19T00:21:38.785Z,8.15
2022-11-19T00:24:06.370Z,7.63
2022-11-19T00:26:33.626Z,8.05
2022-11-19T00:29:01.234Z,11.38
2022-11-19T00:31:28.228Z,12.93
2022-11-19T00:33:55.262Z,13.00
2022-11-19T00:36:23.555Z,11.18
2022-11-19T00:38:50.901Z,17.50
2022-11-19T00:41:18.283Z,11.80
2022-11-19T00:43:48.254Z,15.57
2022-11-19T00:46:24.095Z,12.48
2022-11-19T00:48:52.738Z,6.28
2022-11-19T00:51:21.787Z,10.02
2022-11-19T00:53:48.860Z,14.18
2022-11-19T00:56:18.629Z,11.98
2022-11-19T00:58:46.443Z,16.52
2022-11-19T01:01:14.980Z,11.55
2022-11-19T01:03:42.706Z,10.05
2022-11-19T01:06:10.168Z,13.27
2022-11-19T01:08:37.555Z,7.03
2022-11-19T01:11:13.459Z,11.85
2022-11-19T01:13:40.836Z,7.30
2022-11-19T01:16:11.447Z,6.28
2022-11-19T01:18:39.609Z,11.50
2022-11-19T01:21:08.530Z,9.10
2022-11-19T01:23:35.583Z,8.05
2022-11-19T01:26:02.841Z,6.05
2022-11-19T01:28:30.165Z,5.03
2022-11-19T01:30:57.549Z,8.38
2022-11-19T01:33:24.449Z,9.02
2022-11-19T01:35:55.950Z,8.73
2022-11-19T01:38:22.991Z,8.40
2022-11-19T01:40:49.958Z,7.90
2022-11-19T01:43:16.891Z,10.88
2022-11-19T01:45:49.522Z,10.35
2022-11-19T01:48:16.348Z,10.93
2022-11-19T01:50:59.254Z,5.70
2022-11-19T01:53:31.430Z,11.23
2022-11-19T01:56:04.172Z,7.43
2022-11-19T01:58:36.446Z,16.63
2022-11-19T02:01:03.602Z,7.47
2022-11-19T02:03:32.350Z,8.10
2022-11-19T02:06:01.723Z,4.95
2022-11-19T02:08:43.673Z,8.75
2022-11-19T02:11:10.455Z,4.07
2022-11-19T02:13:43.708Z,4.70
2022-11-19T02:16:43.710Z,8.93
2022-11-19T02:19:26.001Z,6.53
2022-11-19T02:22:18.314Z,6.25
2022-11-19T02:24:54.401Z,7.85
2022-11-19T02:27:51.341Z,5.40
2022-11-19T02:30:19.885Z,10.68
2022-11-19T02:32:53.414Z,4.25
2022-11-19T02:35:45.127Z,5.40
2022-11-19T02:38:54.509Z,5.10
2022-11-19T02:41:37.961Z,3.50
2022-11-19T02:44:38.747Z,5.50
2022-11-19T02:47:12.336Z,8.90
2022-11-19T02:49:44.738Z,5.15
2022-11-19T02:52:13.934Z,9.32
2022-11-19T02:54:40.912Z,2.45
2022-11-19T02:57:11.896Z,5.95
2022-11-19T03:00:02.790Z,5.22
2022-11-19T03:03:20.652Z,3.85
2022-11-19T03:05:52.355Z,2.00
2022-11-19T03:08:19.809Z,1.60
2022-11-19T03:11:00.360Z,2.33
2022-11-19T03:14:19.635Z,2.28
2022-11-19T03:16:57.880Z,0.80
2022-11-19T03:19:36.625Z,1.02
2022-11-19T03:22:18.659Z,1.63
2022-11-19T03:25:14.035Z,2.22
2022-11-19T03:27:54.335Z,1.08
2022-11-19T03:30:21.540Z,2.90
2022-11-19T03:32:58.165Z,2.45
2022-11-19T03:38:05.972Z,1.33
2022-11-19T03:40:34.820Z,2.05
2022-11-19T03:43:06.028Z,1.02
2022-11-19T03:45:39.608Z,3.33
2022-11-19T03:48:07.773Z,1.35
2022-11-19T03:50:50.284Z,1.73
2022-11-19T03:53:18.334Z,1.90
2022-11-19T03:55:51.727Z,0.93
2022-11-19T03:58:19.307Z,1.80
2022-11-19T04:00:46.271Z,1.77
2022-11-19T04:03:13.149Z,1.27
2022-11-19T04:05:40.250Z,2.25
2022-11-19T04:08:07.087Z,2.55
2022-11-19T04:10:33.983Z,2.33
2022-11-19T04:13:00.866Z,1.90
2022-11-19T04:15:27.716Z,0.73
2022-11-19T04:17:54.777Z,2.00
2022-11-19T04:20:21.738Z,2.00
2022-11-19T04:22:51.771Z,0.70
2022-11-19T04:25:19.231Z,1.10
2022-11-19T04:27:47.163Z,0.85
2022-11-19T04:30:15.125Z,1.02
2022-11-19T04:32:42.998Z,2.42
2022-11-19T04:35:10.701Z,3.53
2022-11-19T04:37:37.694Z,1.52
2022-11-19T04:40:05.006Z,4.25
2022-11-19T04:42:32.016Z,1.63
2022-11-19T04:44:59.000Z,1.50
2022-11-19T04:47:25.859Z,1.73
2022-11-19T04:49:52.703Z,1.85
2022-11-19T04:52:19.718Z,4.63
2022-11-19T04:54:46.703Z,1.02
2022-11-19T04:57:13.616Z,1.63
2022-11-19T04:59:40.589Z,3.22
2022-11-19T05:02:07.495Z,1.85
2022-11-19T05:04:34.396Z,1.00
2022-11-19T05:07:01.335Z,1.15
2022-11-19T05:09:28.301Z,1.48
2022-11-19T05:11:55.155Z,1.83
2022-11-19T05:14:23.766Z,2.25
2022-11-19T05:16:54.451Z,2.05
2022-11-19T05:19:21.771Z,0.93
2022-11-19T05:21:49.009Z,4.60
2022-11-19T05:24:15.898Z,2.35
2022-11-19T05:26:42.815Z,1.77
2022-11-19T05:29:09.712Z,1.42
2022-11-19T05:31:36.592Z,0.98
2022-11-19T05:34:03.449Z,1.33
2022-11-19T05:36:30.297Z,1.58
2022-11-19T05:38:57.215Z,1.73
2022-11-19T05:41:24.199Z,1.40
2022-11-19T05:43:51.086Z,1.98
2022-11-19T05:46:17.940Z,1.50
2022-11-19T05:48:44.869Z,1.95
2022-11-19T05:51:15.614Z,1.55
2022-11-19T05:53:43.510Z,1.70
2022-11-19T05:56:10.531Z,3.08
2022-11-19T05:58:37.412Z,1.70
2022-11-19T06:01:04.884Z,1.75
2022-11-19T06:03:32.729Z,3.63
2022-11-19T06:05:59.645Z,2.13
2022-11-19T06:08:26.577Z,2.67
2022-11-19T06:10:53.525Z,4.65
2022-11-19T06:13:20.624Z,3.20
2022-11-19T06:15:47.508Z,2.90
2022-11-19T06:18:14.444Z,2.80
2022-11-19T06:20:41.385Z,1.55
2022-11-19T06:23:08.246Z,2.70
2022-11-19T06:25:35.159Z,5.35
2022-11-19T06:28:02.062Z,2.92
2022-11-19T06:30:28.996Z,5.85
2022-11-19T06:32:55.924Z,4.38
2022-11-19T06:35:22.807Z,2.25
2022-11-19T06:37:49.712Z,3.47
2022-11-19T06:40:16.666Z,3.30
2022-11-19T06:42:45.235Z,2.53
2022-11-19T06:45:15.423Z,3.08
2022-11-19T06:47:43.087Z,2.58
2022-11-19T06:50:10.909Z,2.50
2022-11-19T06:52:38.312Z,3.45
2022-11-19T06:55:05.634Z,6.85
2022-11-19T06:57:32.618Z,2.75
2022-11-19T06:59:59.482Z,5.05
2022-11-19T07:02:26.527Z,2.38
2022-11-19T07:04:53.429Z,4.35
2022-11-19T07:07:21.314Z,2.22
2022-11-19T07:09:48.206Z,3.20
2022-11-19T07:12:15.121Z,2.75
2022-11-19T07:14:42.210Z,2.97
2022-11-19T07:17:09.071Z,5.28
2022-11-19T07:19:35.956Z,3.20
2022-11-19T07:22:02.835Z,3.45
2022-11-19T07:24:29.674Z,2.83
2022-11-19T07:26:56.729Z,1.77
2022-11-19T07:29:23.938Z,2.20
2022-11-19T07:31:53.348Z,2.75
2022-11-19T07:34:21.316Z,4.13
2022-11-19T07:36:48.621Z,2.20
2022-11-19T07:39:15.959Z,2.00
2022-11-19T07:42:01.313Z,2.17
2022-11-19T07:44:28.354Z,1.15
2022-11-19T07:46:55.336Z,2.15
2022-11-19T07:49:22.668Z,1.95
2022-11-19T07:51:49.746Z,2.45
2022-11-19T07:54:16.809Z,1.48
2022-11-19T07:56:44.065Z,2.30
2022-11-19T07:59:11.368Z,1.98
2022-11-19T08:01:39.013Z,1.67
2022-11-19T08:04:05.975Z,2.58
2022-11-19T08:06:36.110Z,3.05
2022-11-19T08:09:04.535Z,2.35
2022-11-19T08:11:31.760Z,4.35
2022-11-19T08:14:01.380Z,2.10
2022-11-19T08:16:47.241Z,2.60
2022-11-19T08:19:17.613Z,1.48
2022-11-19T08:21:47.147Z,3.38
2022-11-19T08:24:15.694Z,4.22
2022-11-19T08:26:43.140Z,1.83
2022-11-19T08:29:16.048Z,1.95
2022-11-19T08:31:45.608Z,1.95
2022-11-19T08:34:12.612Z,2.38
2022-11-19T08:36:39.894Z,3.92
2022-11-19T08:39:06.968Z,2.08
2022-11-19T08:41:52.859Z,1.33
2022-11-19T08:44:20.308Z,2.88
2022-11-19T08:46:47.383Z,3.00
2022-11-19T08:49:14.393Z,3.75
2022-11-19T08:51:41.377Z,2.05
2022-11-19T08:54:08.949Z,1.50
2022-11-19T08:56:35.867Z,2.50
2022-11-19T08:59:03.542Z,3.50
2022-11-19T09:01:31.092Z,2.85
2022-11-19T09:03:58.424Z,1.60
2022-11-19T09:06:25.276Z,2.20
2022-11-19T09:08:52.422Z,3.40
2022-11-19T09:11:21.876Z,2.28
2022-11-19T09:13:48.987Z,3.83
2022-11-19T09:16:16.673Z,9.55
2022-11-19T09:18:43.952Z,4.95
2022-11-19T09:21:12.364Z,2.60
2022-11-19T09:23:41.550Z,1.58
2022-11-19T09:26:12.797Z,2.03
2022-11-19T09:28:40.204Z,2.95
2022-11-19T09:31:10.178Z,4.47
2022-11-19T09:33:39.438Z,2.05
2022-11-19T09:36:06.599Z,2.00
2022-11-19T09:38:35.294Z,2.47
2022-11-19T09:41:17.552Z,2.90
2022-11-19T09:43:58.949Z,2.95
2022-11-19T10:18:11.828Z,2.93
2022-11-19T10:21:01.896Z,2.08
2022-11-19T10:23:38.180Z,1.95
2022-11-19T10:26:11.220Z,2.10
2022-11-19T10:28:41.185Z,5.03
2022-11-19T10:31:16.315Z,4.72
2022-11-19T10:33:51.907Z,3.10
2022-11-19T10:36:34.465Z,4.30
2022-11-19T10:39:07.898Z,1.92
2022-11-19T10:41:37.768Z,2.20
2022-11-19T10:44:40.171Z,2.20
2022-11-19T10:47:34.729Z,2.90
2022-11-19T10:50:05.624Z,7.78
2022-11-19T10:52:41.302Z,1.95
2022-11-19T10:55:28.655Z,7.72
2022-11-19T10:58:17.900Z,2.00
2022-11-19T11:00:45.112Z,3.35
2022-11-19T11:03:26.516Z,4.38
2022-11-19T11:05:56.977Z,4.43
2022-11-19T11:08:24.258Z,4.40
2022-11-19T11:10:52.396Z,5.22
2022-11-19T11:13:52.805Z,4.43
2022-11-19T11:16:26.983Z,3.17
2022-11-19T11:18:57.003Z,3.53
2022-11-19T11:21:39.745Z,3.78
2022-11-19T11:24:07.854Z,5.00
2022-11-19T11:26:36.839Z,4.28
2022-11-19T11:29:26.254Z,6.05
2022-11-19T11:31:54.041Z,4.82
2022-11-19T11:34:30.079Z,7.78
2022-11-19T11:36:59.079Z,5.80
2022-11-19T11:39:30.289Z,8.48
2022-11-19T11:42:05.791Z,7.90
2022-11-19T11:44:37.389Z,3.25
2022-11-19T11:47:13.274Z,3.53
2022-11-19T11:49:46.312Z,4.05
2022-11-19T11:52:22.617Z,4.22
2022-11-19T11:55:06.202Z,2.50
2022-11-19T11:57:50.256Z,2.90
2022-11-19T12:00:43.064Z,2.55
2022-11-19T12:03:10.237Z,4.63
2022-11-19T12:05:55.521Z,3.03
2022-11-19T12:08:47.659Z,2.33
2022-11-19T12:11:14.491Z,3.53
2022-11-19T12:13:59.171Z,3.25
2022-11-19T12:16:49.215Z,4.75
2022-11-19T12:19:42.568Z,2.08
2022-11-19T12:22:33.511Z,2.60
2022-11-19T12:25:42.065Z,1.92
2022-11-19T12:28:27.020Z,2.45
2022-11-19T12:31:16.433Z,2.80
2022-11-19T12:34:05.487Z,2.47
2022-11-19T12:36:32.289Z,3.28
2022-11-19T12:39:34.146Z,5.05
2022-11-19T12:42:15.864Z,2.22
2022-11-19T12:44:48.917Z,4.38
2022-11-19T12:47:33.432Z,2.45
2022-11-19T12:50:00.361Z,4.75
2022-11-19T12:52:38.920Z,2.58
2022-11-19T12:55:21.894Z,3.97
2022-11-19T12:58:04.861Z,4.43
2022-11-19T13:00:40.831Z,4.65
2022-11-19T13:05:54.644Z,5.15
2022-11-19T13:08:30.299Z,4.03
2022-11-19T13:11:06.008Z,4.28
2022-11-19T13:13:37.748Z,6.45
2022-11-19T13:16:10.730Z,7.95
2022-11-19T13:18:42.255Z,2.75
2022-11-19T13:22:04.377Z,3.63
2022-11-19T13:24:35.223Z,3.55
2022-11-19T13:27:05.655Z,2.65
2022-11-19T13:29:44.241Z,2.80
2022-11-19T13:32:31.472Z,2.28
2022-11-19T13:35:16.617Z,5.57
2022-11-19T13:37:58.554Z,2.10
2022-11-19T13:40:34.061Z,4.55
2022-11-19T13:43:35.689Z,2.92
2022-11-19T13:46:11.399Z,4.75
2022-11-19T13:48:46.009Z,3.35
2022-11-19T13:51:25.148Z,2.55
2022-11-19T13:54:01.205Z,2.88
2022-11-19T13:56:48.781Z,6.90
2022-11-19T13:59:27.975Z,2.90
2022-11-19T14:02:16.135Z,4.85
2022-11-19T14:04:53.554Z,2.58
2022-11-19T14:07:45.229Z,5.35
2022-11-19T14:10:32.165Z,4.50
2022-11-19T14:13:36.395Z,4.65
2022-11-19T14:16:49.853Z,4.78
2022-11-19T14:19:56.489Z,4.45
2022-11-19T14:22:58.498Z,3.70
2022-11-19T14:26:01.977Z,6.13
2022-11-19T14:28:50.909Z,11.65
2022-11-19T14:31:20.304Z,5.28
2022-11-19T14:33:47.164Z,8.23
2022-11-19T14:36:41.162Z,6.60
2022-11-19T14:39:23.804Z,16.90
2022-11-19T14:42:17.920Z,7.20
2022-11-19T14:45:07.179Z,11.80
2022-11-19T14:47:42.538Z,10.15
2022-11-19T14:50:22.339Z,9.20
2022-11-19T14:53:03.047Z,5.40
2022-11-19T14:55:31.472Z,6.72
2022-11-19T14:58:05.138Z,4.22
2022-11-19T15:00:31.988Z,7.63
2022-11-19T15:03:01.129Z,6.68
2022-11-19T15:05:41.105Z,3.55
2022-11-19T15:08:16.959Z,5.30
2022-11-19T15:11:04.915Z,8.40
2022-11-19T15:13:37.703Z,8.07
2022-11-19T15:16:09.611Z,4.70
2022-11-19T15:18:45.496Z,5.85
2022-11-19T15:21:40.326Z,11.27
2022-11-19T15:24:35.138Z,4.57
2022-11-19T15:27:08.106Z,6.13
2022-11-19T15:30:22.508Z,5.13
2022-11-19T15:33:16.844Z,3.05
2022-11-19T15:36:01.614Z,3.83
2022-11-19T15:38:37.211Z,8.27
2022-11-19T15:41:05.294Z,6.67
2022-11-19T15:43:43.667Z,3.38
2022-11-19T15:46:20.309Z,5.07
2022-11-19T15:51:26.234Z,4.47
2022-11-19T15:54:07.147Z,9.18
2022-11-19T15:56:47.243Z,4.97
2022-11-19T15:59:18.052Z,6.32
2022-11-19T16:01:56.251Z,5.30
2022-11-19T16:04:23.319Z,4.88
2022-11-19T16:06:51.975Z,4.78
2022-11-19T16:09:25.179Z,2.97
2022-11-19T16:12:11.790Z,4.22
2022-11-19T16:14:57.600Z,4.68
2022-11-19T16:17:34.860Z,2.58
2022-11-19T16:20:21.177Z,4.32
2022-11-19T16:23:06.874Z,6.35
2022-11-19T16:25:33.944Z,3.08
2022-11-19T16:28:06.099Z,5.70
2022-11-19T16:31:05.130Z,3.65
2022-11-19T16:33:34.344Z,4.38
2022-11-19T16:36:11.559Z,5.35
2022-11-19T16:38:40.946Z,6.03
2022-11-19T16:41:29.067Z,8.60
2022-11-19T16:43:56.776Z,9.73
2022-11-19T16:46:28.934Z,8.25
2022-11-19T16:49:00.248Z,6.85
2022-11-19T16:51:55.363Z,7.65
2022-11-19T16:54:58.000Z,7.57
2022-11-19T16:57:26.828Z,8.55
2022-11-19T16:59:58.494Z,9.68
2022-11-19T17:02:38.095Z,6.43
2022-11-19T17:05:10.333Z,4.95
2022-11-19T17:07:37.464Z,6.95
2022-11-19T17:10:13.578Z,5.93
2022-11-19T17:12:50.830Z,6.55
2022-11-19T17:15:39.395Z,6.80
2022-11-19T17:18:29.497Z,6.25
2022-11-19T17:21:03.307Z,6.65
2022-11-19T17:23:32.988Z,6.05
2022-11-19T17:26:03.651Z,5.40
2022-11-19T17:28:40.919Z,6.25
2022-11-19T17:31:17.080Z,6.18
2022-11-19T17:34:12.832Z,8.80
2022-11-19T17:36:40.054Z,9.45
2022-11-19T17:39:11.072Z,8.90
2022-11-19T17:41:57.985Z,10.48
2022-11-19T17:44:39.273Z,6.03
2022-11-19T17:47:21.053Z,8.38
2022-11-19T17:49:49.147Z,5.68
2022-11-19T17:52:26.556Z,8.77
2022-11-19T17:54:57.104Z,5.25
2022-11-19T17:57:24.557Z,8.57
2022-11-19T17:59:52.005Z,6.47
2022-11-19T18:02:21.376Z,10.70
2022-11-19T18:04:49.375Z,10.43
2022-11-19T18:07:16.571Z,7.53
2022-11-19T18:09:43.579Z,12.60
2022-11-19T18:12:17.392Z,4.85
2022-11-19T18:14:44.794Z,4.55
2022-11-19T18:17:13.170Z,11.95
2022-11-19T18:19:40.669Z,6.68
2022-11-19T18:22:17.521Z,6.03
2022-11-19T18:24:49.547Z,6.72
2022-11-19T18:27:17.728Z,7.93
2022-11-19T18:29:44.679Z,8.23
2022-11-19T18:32:15.356Z,8.82
2022-11-19T18:34:43.294Z,8.35
2022-11-19T18:37:10.361Z,7.68
2022-11-19T18:39:37.448Z,5.75
2022-11-19T18:42:04.831Z,7.38
2022-11-19T18:44:34.484Z,4.43
2022-11-19T18:47:07.972Z,4.65
2022-11-19T18:49:35.274Z,5.78
2022-11-19T18:52:07.043Z,6.13
2022-11-19T18:54:34.658Z,8.23
2022-11-19T18:57:01.804Z,7.00
2022-11-19T18:59:30.105Z,8.15
2022-11-19T19:01:57.623Z,8.15
2022-11-19T19:04:24.644Z,8.18
2022-11-19T19:06:51.913Z,8.00
2022-11-19T19:09:20.507Z,5.43
2022-11-19T19:12:12.555Z,4.18
2022-11-19T19:14:40.158Z,3.47
2022-11-19T19:17:07.218Z,7.78
2022-11-19T19:19:34.274Z,9.25
2022-11-19T19:22:01.675Z,4.32
2022-11-19T19:24:29.290Z,8.80
2022-11-19T19:26:56.192Z,9.55
2022-11-19T19:29:23.314Z,5.30
2022-11-19T19:31:50.551Z,5.80
2022-11-19T19:34:17.797Z,13.18
2022-11-19T19:36:50.170Z,8.20
2022-11-19T19:39:19.794Z,6.93
2022-11-19T19:41:49.535Z,12.35
2022-11-19T19:44:16.769Z,9.98
2022-11-19T19:46:43.883Z,6.50
2022-11-19T19:49:11.190Z,12.07
2022-11-19T19:51:38.121Z,11.45
2022-11-19T19:54:05.784Z,10.15
2022-11-19T19:56:33.587Z,6.63
2022-11-19T19:59:01.651Z,8.52
2022-11-19T20:01:31.482Z,10.45
2022-11-19T20:04:09.488Z,12.73
2022-11-19T20:06:41.607Z,8.48
2022-11-19T20:09:09.337Z,11.00
2022-11-19T20:11:37.166Z,7.45
2022-11-19T20:14:04.167Z,9.82
2022-11-19T20:16:32.209Z,10.93
2022-11-19T20:19:00.493Z,9.48
2022-11-19T20:21:31.769Z,9.48
2022-11-19T20:23:59.166Z,10.25
2022-11-19T20:26:28.827Z,8.50
2022-11-19T20:28:57.443Z,9.15
2022-11-19T20:31:24.968Z,9.90
2022-11-19T20:33:59.837Z,12.52
2022-11-19T20:36:28.864Z,9.90
2022-11-19T20:38:57.669Z,8.75
2022-11-19T20:41:43.994Z,8.27
2022-11-19T20:44:22.378Z,15.48
2022-11-19T20:47:00.951Z,16.20
2022-11-19T20:49:30.138Z,10.50
2022-11-19T20:51:57.412Z,8.73
2022-11-19T20:54:25.496Z,11.82
2022-11-19T20:56:53.689Z,7.90
2022-11-19T20:59:21.710Z,8.65
2022-11-19T21:01:50.189Z,9.60
2022-11-19T21:04:17.834Z,11.23
2022-11-19T21:06:44.976Z,18.10
2022-11-19T21:09:11.944Z,7.97
2022-11-19T21:11:38.976Z,13.15
2022-11-19T21:14:06.639Z,12.82
2022-11-19T21:16:33.793Z,12.30
2022-11-19T21:19:01.153Z,9.85
2022-11-19T21:21:28.220Z,12.40
2022-11-19T21:23:55.513Z,12.70
2022-11-19T21:26:27.526Z,15.93
2022-11-19T21:28:56.695Z,6.15
2022-11-19T21:31:48.771Z,17.60
2022-11-19T21:34:18.032Z,18.63
2022-11-19T21:36:46.617Z,16.27
2022-11-19T21:39:16.456Z,15.13
2022-11-19T21:41:44.061Z,13.32
2022-11-19T21:44:11.017Z,12.73
2022-11-19T21:46:38.113Z,11.77
2022-11-19T21:49:05.460Z,13.02
2022-11-19T21:51:32.404Z,8.70
2022-11-19T21:53:59.915Z,15.25
2022-11-19T21:56:32.326Z,11.23
2022-11-19T21:59:02.537Z,12.73
2022-11-19T22:01:29.430Z,11.65
2022-11-19T22:03:56.419Z,9.38
2022-11-19T22:06:23.488Z,8.40
2022-11-19T22:08:50.507Z,10.38
2022-11-19T22:11:29.359Z,10.57
2022-11-19T22:14:04.868Z,14.70
2022-11-19T22:16:34.587Z,13.75
2022-11-19T22:19:01.775Z,11.07
2022-11-19T22:21:29.475Z,15.15
2022-11-19T22:23:56.982Z,10.00
2022-11-19T22:26:24.433Z,12.90
2022-11-19T22:28:51.351Z,9.73
2022-11-19T22:31:18.252Z,11.80
2022-11-19T22:33:45.226Z,13.35
2022-11-19T22:36:12.196Z,13.85
2022-11-19T22:38:39.317Z,12.50
2022-11-19T22:41:09.008Z,9.30
2022-11-19T22:43:36.838Z,6.72
2022-11-19T22:46:04.500Z,11.70
2022-11-19T22:48:32.793Z,9.73
2022-11-19T22:50:59.930Z,12.25
2022-11-19T22:53:26.925Z,9.43
2022-11-19T22:55:53.769Z,11.82
2022-11-19T22:58:20.690Z,13.75
2022-11-19T23:00:49.522Z,18.15
2022-11-19T23:03:18.161Z,17.38
2022-11-19T23:05:52.358Z,6.15
2022-11-19T23:08:19.834Z,15.60
2022-11-19T23:10:47.314Z,14.48
2022-11-19T23:13:32.157Z,13.68
2022-11-19T23:16:03.515Z,12.68
2022-11-19T23:18:33.294Z,12.98
2022-11-19T23:21:05.005Z,14.88
2022-11-19T23:23:31.916Z,17.23
2022-11-19T23:26:01.229Z,14.75
2022-11-19T23:28:29.859Z,7.05
2022-11-19T23:30:56.886Z,17.55
2022-11-19T23:33:24.131Z,17.20
2022-11-19T23:35:51.097Z,13.55
2022-11-19T23:38:18.038Z,9.40
2022-11-19T23:40:45.006Z,10.70
2022-11-19T23:43:11.911Z,16.70
2022-11-19T23:45:38.811Z,14.27
2022-11-19T23:48:05.917Z,14.60
2022-11-19T23:50:33.017Z,13.32
2022-11-19T23:52:59.939Z,13.15
2022-11-19T23:55:26.838Z,11.75
2022-11-19T23:57:53.825Z,5.63
